sensor_id;sensor_type;location;lat;lon;timestamp;pressure;altitude;pressure_sealevel;temperature;humidity
9676;BME280;4876;42.656;23.292;2023-08-06T00:01:45;93255.50;;;18.73;100.00
9676;BME280;4876;42.656;23.292;2023-08-06T00:04:12;93304.19;;;18.74;100.00
9676;BME280;4876;42.656;23.292;2023-08-06T00:06:39;93300.81;;;18.48;100.00
9676;BME280;4876;42.656;23.292;2023-08-06T00:09:07;93299.31;;;18.51;100.00
9676;BME280;4876;42.656;23.292;2023-08-06T00:11:34;93306.91;;;18.42;100.00
9676;BME280;4876;42.656;23.292;2023-08-06T00:14:00;93288.69;;;18.33;100.00
9676;BME280;4876;42.656;23.292;2023-08-06T00:16:27;93299.34;;;18.33;100.00
9676;BME280;4876;42.656;23.292;2023-08-06T00:18:54;93291.75;;;18.24;100.00
9676;BME280;4876;42.656;23.292;2023-08-06T00:21:21;93297.81;;;18.39;100.00
9676;BME280;4876;42.656;23.292;2023-08-06T00:23:48;93302.69;;;18.55;100.00
9676;BME280;4876;42.656;23.292;2023-08-06T00:26:16;93314.47;;;18.68;100.00
9676;BME280;4876;42.656;23.292;2023-08-06T00:28:42;93308.38;;;18.75;100.00
9676;BME280;4876;42.656;23.292;2023-08-06T00:31:09;93291.19;;;18.87;100.00
9676;BME280;4876;42.656;23.292;2023-08-06T00:33:36;93287.38;;;18.95;100.00
9676;BME280;4876;42.656;23.292;2023-08-06T00:36:03;93282.75;;;19.02;100.00
9676;BME280;4876;42.656;23.292;2023-08-06T00:38:29;93289.22;;;19.05;100.00
9676;BME280;4876;42.656;23.292;2023-08-06T00:40:56;93270.16;;;19.06;100.00
9676;BME280;4876;42.656;23.292;2023-08-06T00:43:24;93268.28;;;19.07;100.00
9676;BME280;4876;42.656;23.292;2023-08-06T00:45:51;93269.09;;;18.97;100.00
9676;BME280;4876;42.656;23.292;2023-08-06T00:48:18;93277.88;;;18.87;100.00
9676;BME280;4876;42.656;23.292;2023-08-06T00:50:45;93267.25;;;18.79;100.00
9676;BME280;4876;42.656;23.292;2023-08-06T00:53:12;93277.13;;;18.90;100.00
9676;BME280;4876;42.656;23.292;2023-08-06T00:55:39;93274.81;;;18.95;100.00
9676;BME280;4876;42.656;23.292;2023-08-06T00:58:06;93274.06;;;18.91;100.00
9676;BME280;4876;42.656;23.292;2023-08-06T01:00:35;93267.97;;;18.91;100.00
9676;BME280;4876;42.656;23.292;2023-08-06T01:03:02;93257.69;;;18.93;100.00
9676;BME280;4876;42.656;23.292;2023-08-06T01:05:29;93242.44;;;18.97;100.00
9676;BME280;4876;42.656;23.292;2023-08-06T01:08:07;93229.13;;;18.97;100.00
9676;BME280;4876;42.656;23.292;2023-08-06T01:10:49;93219.31;;;18.79;100.00
9676;BME280;4876;42.656;23.292;2023-08-06T01:13:24;93232.97;;;18.89;100.00
9676;BME280;4876;42.656;23.292;2023-08-06T01:15:55;93232.94;;;18.92;100.00
9676;BME280;4876;42.656;23.292;2023-08-06T01:18:23;93224.84;;;19.14;100.00
9676;BME280;4876;42.656;23.292;2023-08-06T01:20:51;93221.44;;;19.09;100.00
9676;BME280;4876;42.656;23.292;2023-08-06T01:23:18;93215.47;;;18.88;100.00
9676;BME280;4876;42.656;23.292;2023-08-06T01:25:49;93228.25;;;18.23;100.00
9676;BME280;4876;42.656;23.292;2023-08-06T01:28:27;93225.56;;;18.34;100.00
9676;BME280;4876;42.656;23.292;2023-08-06T01:30:59;93232.72;;;18.58;100.00
9676;BME280;4876;42.656;23.292;2023-08-06T01:33:30;93213.22;;;18.82;100.00
9676;BME280;4876;42.656;23.292;2023-08-06T01:36:00;93202.47;;;18.97;100.00
9676;BME280;4876;42.656;23.292;2023-08-06T01:38:27;93198.66;;;18.94;100.00
9676;BME280;4876;42.656;23.292;2023-08-06T01:40:54;93202.13;;;18.95;100.00
9676;BME280;4876;42.656;23.292;2023-08-06T01:43:21;93207.16;;;18.78;100.00
9676;BME280;4876;42.656;23.292;2023-08-06T01:45:48;93207.19;;;18.71;100.00
9676;BME280;4876;42.656;23.292;2023-08-06T01:48:14;93218.22;;;18.63;100.00
9676;BME280;4876;42.656;23.292;2023-08-06T01:50:41;93215.53;;;18.66;100.00
9676;BME280;4876;42.656;23.292;2023-08-06T01:53:10;93217.47;;;18.62;100.00
9676;BME280;4876;42.656;23.292;2023-08-06T01:55:37;93215.53;;;18.66;100.00
9676;BME280;4876;42.656;23.292;2023-08-06T01:58:04;93203.78;;;18.67;100.00
9676;BME280;4876;42.656;23.292;2023-08-06T02:00:31;93213.00;;;18.45;100.00
9676;BME280;4876;42.656;23.292;2023-08-06T02:02:57;93203.84;;;18.46;100.00
9676;BME280;4876;42.656;23.292;2023-08-06T02:05:24;93197.34;;;18.58;100.00
9676;BME280;4876;42.656;23.292;2023-08-06T02:07:51;93191.97;;;18.61;100.00
9676;BME280;4876;42.656;23.292;2023-08-06T02:10:19;93182.81;;;18.76;100.00
9676;BME280;4876;42.656;23.292;2023-08-06T02:12:46;93194.16;;;18.88;100.00
9676;BME280;4876;42.656;23.292;2023-08-06T02:15:13;93198.66;;;19.01;100.00
9676;BME280;4876;42.656;23.292;2023-08-06T02:17:40;93207.75;;;19.04;100.00
9676;BME280;4876;42.656;23.292;2023-08-06T02:20:07;93228.97;;;19.18;100.00
9676;BME280;4876;42.656;23.292;2023-08-06T02:22:34;93233.22;;;19.12;100.00
9676;BME280;4876;42.656;23.292;2023-08-06T02:25:01;93207.91;;;18.82;100.00
9676;BME280;4876;42.656;23.292;2023-08-06T02:27:29;93210.56;;;18.79;100.00
9676;BME280;4876;42.656;23.292;2023-08-06T02:29:56;93208.00;;;18.54;100.00
9676;BME280;4876;42.656;23.292;2023-08-06T02:32:23;93201.91;;;18.53;100.00
9676;BME280;4876;42.656;23.292;2023-08-06T02:34:49;93196.53;;;18.64;100.00
9676;BME280;4876;42.656;23.292;2023-08-06T02:37:16;93204.13;;;18.76;100.00
9676;BME280;4876;42.656;23.292;2023-08-06T02:39:43;93241.41;;;18.76;100.00
9676;BME280;4876;42.656;23.292;2023-08-06T02:42:10;93234.44;;;18.97;100.00
9676;BME280;4876;42.656;23.292;2023-08-06T02:44:38;93235.59;;;18.92;100.00
9676;BME280;4876;42.656;23.292;2023-08-06T02:47:05;93235.72;;;18.67;100.00
9676;BME280;4876;42.656;23.292;2023-08-06T02:49:32;93219.06;;;18.45;100.00
9676;BME280;4876;42.656;23.292;2023-08-06T02:51:59;93200.47;;;18.35;100.00
9676;BME280;4876;42.656;23.292;2023-08-06T02:54:25;93194.28;;;18.59;100.00
9676;BME280;4876;42.656;23.292;2023-08-06T02:56:52;93191.91;;;18.79;100.00
9676;BME280;4876;42.656;23.292;2023-08-06T02:59:19;93171.00;;;18.77;100.00
9676;BME280;4876;42.656;23.292;2023-08-06T03:01:47;93201.78;;;18.89;100.00
9676;BME280;4876;42.656;23.292;2023-08-06T03:04:14;93177.44;;;18.80;100.00
9676;BME280;4876;42.656;23.292;2023-08-06T03:06:43;93156.19;;;18.76;100.00
9676;BME280;4876;42.656;23.292;2023-08-06T03:09:09;93172.41;;;18.96;100.00
9676;BME280;4876;42.656;23.292;2023-08-06T03:11:36;93182.47;;;18.64;100.00
9676;BME280;4876;42.656;23.292;2023-08-06T03:14:03;93195.03;;;18.60;100.00
9676;BME280;4876;42.656;23.292;2023-08-06T03:16:30;93184.34;;;18.63;100.00
9676;BME280;4876;42.656;23.292;2023-08-06T03:18:58;93160.31;;;18.85;100.00
9676;BME280;4876;42.656;23.292;2023-08-06T03:21:25;93140.84;;;18.95;100.00
9676;BME280;4876;42.656;23.292;2023-08-06T03:23:51;93153.78;;;18.93;100.00
9676;BME280;4876;42.656;23.292;2023-08-06T03:26:18;93157.53;;;19.02;100.00
9676;BME280;4876;42.656;23.292;2023-08-06T03:28:45;93177.22;;;19.16;100.00
9676;BME280;4876;42.656;23.292;2023-08-06T03:31:12;93181.13;;;19.00;100.00
9676;BME280;4876;42.656;23.292;2023-08-06T03:33:39;93204.78;;;18.95;100.00
9676;BME280;4876;42.656;23.292;2023-08-06T03:36:07;93208.66;;;18.79;100.00
9676;BME280;4876;42.656;23.292;2023-08-06T03:38:33;93196.91;;;18.66;100.00
9676;BME280;4876;42.656;23.292;2023-08-06T03:41:00;93197.66;;;18.63;100.00
9676;BME280;4876;42.656;23.292;2023-08-06T03:43:27;93205.69;;;18.67;100.00
9676;BME280;4876;42.656;23.292;2023-08-06T03:45:54;93200.34;;;18.70;100.00
9676;BME280;4876;42.656;23.292;2023-08-06T03:48:20;93197.59;;;18.85;100.00
9676;BME280;4876;42.656;23.292;2023-08-06T03:50:47;93216.25;;;18.88;100.00
9676;BME280;4876;42.656;23.292;2023-08-06T03:53:15;93212.78;;;18.95;100.00
9676;BME280;4876;42.656;23.292;2023-08-06T03:55:42;93218.81;;;18.99;100.00
9676;BME280;4876;42.656;23.292;2023-08-06T03:58:09;93226.06;;;18.98;100.00
9676;BME280;4876;42.656;23.292;2023-08-06T04:00:36;93225.22;;;19.12;100.00
9676;BME280;4876;42.656;23.292;2023-08-06T04:03:03;93229.38;;;19.17;100.00
9676;BME280;4876;42.656;23.292;2023-08-06T04:05:31;93233.47;;;19.32;100.00
9676;BME280;4876;42.656;23.292;2023-08-06T04:07:58;93233.31;;;19.50;100.00
9676;BME280;4876;42.656;23.292;2023-08-06T04:10:27;93235.28;;;19.46;100.00
9676;BME280;4876;42.656;23.292;2023-08-06T04:12:53;93241.00;;;19.44;100.00
9676;BME280;4876;42.656;23.292;2023-08-06T04:15:20;93234.66;;;19.24;100.00
9676;BME280;4876;42.656;23.292;2023-08-06T04:17:47;93234.31;;;19.22;100.00
9676;BME280;4876;42.656;23.292;2023-08-06T04:20:14;93235.72;;;19.37;100.00
9676;BME280;4876;42.656;23.292;2023-08-06T04:22:41;93236.78;;;19.47;100.00
9676;BME280;4876;42.656;23.292;2023-08-06T04:25:08;93236.38;;;19.48;100.00
9676;BME280;4876;42.656;23.292;2023-08-06T04:27:36;93228.06;;;19.43;100.00
9676;BME280;4876;42.656;23.292;2023-08-06T04:30:07;93225.03;;;19.37;100.00
9676;BME280;4876;42.656;23.292;2023-08-06T04:32:34;93228.09;;;19.39;100.00
9676;BME280;4876;42.656;23.292;2023-08-06T04:35:01;93209.91;;;19.23;100.00
9676;BME280;4876;42.656;23.292;2023-08-06T04:37:28;93202.31;;;19.22;100.00
9676;BME280;4876;42.656;23.292;2023-08-06T04:39:54;93200.00;;;19.24;100.00
9676;BME280;4876;42.656;23.292;2023-08-06T04:42:21;93184.81;;;19.21;100.00
9676;BME280;4876;42.656;23.292;2023-08-06T04:44:49;93182.50;;;19.23;100.00
9676;BME280;4876;42.656;23.292;2023-08-06T04:47:16;93176.50;;;19.12;100.00
9676;BME280;4876;42.656;23.292;2023-08-06T04:49:43;93166.63;;;19.08;100.00
9676;BME280;4876;42.656;23.292;2023-08-06T04:52:10;93168.38;;;19.29;100.00
9676;BME280;4876;42.656;23.292;2023-08-06T04:54:37;93155.25;;;19.49;100.00
9676;BME280;4876;42.656;23.292;2023-08-06T04:57:04;93148.44;;;19.45;100.00
9676;BME280;4876;42.656;23.292;2023-08-06T04:59:31;93144.25;;;19.44;100.00
9676;BME280;4876;42.656;23.292;2023-08-06T05:01:59;93139.97;;;19.57;100.00
9676;BME280;4876;42.656;23.292;2023-08-06T05:04:26;93140.28;;;19.62;100.00
9676;BME280;4876;42.656;23.292;2023-08-06T05:06:53;93134.00;;;19.83;100.00
9676;BME280;4876;42.656;23.292;2023-08-06T05:09:20;93140.69;;;20.33;100.00
9676;BME280;4876;42.656;23.292;2023-08-06T05:11:47;93139.38;;;21.02;100.00
9676;BME280;4876;42.656;23.292;2023-08-06T05:14:14;93145.03;;;21.08;100.00
9676;BME280;4876;42.656;23.292;2023-08-06T05:16:41;93149.00;;;21.23;100.00
9676;BME280;4876;42.656;23.292;2023-08-06T05:19:09;93149.84;;;21.67;98.71
9676;BME280;4876;42.656;23.292;2023-08-06T05:21:36;93151.84;;;22.26;94.81
9676;BME280;4876;42.656;23.292;2023-08-06T05:24:03;93152.91;;;22.09;91.95
9676;BME280;4876;42.656;23.292;2023-08-06T05:26:30;93157.06;;;22.33;89.44
9676;BME280;4876;42.656;23.292;2023-08-06T05:28:56;93146.28;;;22.37;87.81
9676;BME280;4876;42.656;23.292;2023-08-06T05:31:23;93147.03;;;22.37;87.87
9676;BME280;4876;42.656;23.292;2023-08-06T05:33:50;93144.50;;;22.50;87.74
9676;BME280;4876;42.656;23.292;2023-08-06T05:36:18;93152.25;;;22.44;87.33
9676;BME280;4876;42.656;23.292;2023-08-06T05:38:45;93147.38;;;22.39;86.34
9676;BME280;4876;42.656;23.292;2023-08-06T05:41:12;93150.50;;;22.54;84.92
9676;BME280;4876;42.656;23.292;2023-08-06T05:43:38;93146.75;;;22.51;83.99
9676;BME280;4876;42.656;23.292;2023-08-06T05:46:05;93146.31;;;22.53;85.51
9676;BME280;4876;42.656;23.292;2023-08-06T05:48:32;93139.47;;;22.52;85.91
9676;BME280;4876;42.656;23.292;2023-08-06T05:50:59;93141.44;;;22.84;84.66
9676;BME280;4876;42.656;23.292;2023-08-06T05:53:27;93154.16;;;23.00;81.90
9676;BME280;4876;42.656;23.292;2023-08-06T05:55:54;93161.81;;;23.34;81.81
9676;BME280;4876;42.656;23.292;2023-08-06T05:58:21;93161.50;;;24.10;79.28
9676;BME280;4876;42.656;23.292;2023-08-06T06:00:49;93165.91;;;24.46;75.52
9676;BME280;4876;42.656;23.292;2023-08-06T06:03:16;93171.56;;;24.06;74.19
9676;BME280;4876;42.656;23.292;2023-08-06T06:05:43;93186.63;;;24.16;72.03
9676;BME280;4876;42.656;23.292;2023-08-06T06:08:09;93183.53;;;24.17;72.28
9676;BME280;4876;42.656;23.292;2023-08-06T06:10:38;93185.25;;;24.11;72.30
9676;BME280;4876;42.656;23.292;2023-08-06T06:13:04;93179.00;;;24.14;71.92
9676;BME280;4876;42.656;23.292;2023-08-06T06:15:31;93188.72;;;24.25;72.65
9676;BME280;4876;42.656;23.292;2023-08-06T06:17:58;93197.00;;;24.01;71.06
9676;BME280;4876;42.656;23.292;2023-08-06T06:20:25;93199.72;;;23.52;71.27
9676;BME280;4876;42.656;23.292;2023-08-06T06:22:52;93197.09;;;23.32;72.91
9676;BME280;4876;42.656;23.292;2023-08-06T06:25:18;93207.31;;;23.21;72.38
9676;BME280;4876;42.656;23.292;2023-08-06T06:27:46;93216.59;;;23.17;72.59
9676;BME280;4876;42.656;23.292;2023-08-06T06:30:13;93207.41;;;22.62;76.21
9676;BME280;4876;42.656;23.292;2023-08-06T06:32:40;93218.25;;;22.94;76.22
9676;BME280;4876;42.656;23.292;2023-08-06T06:35:08;93217.16;;;23.44;75.83
9676;BME280;4876;42.656;23.292;2023-08-06T06:37:34;93221.38;;;23.61;73.83
9676;BME280;4876;42.656;23.292;2023-08-06T06:40:01;93238.31;;;23.42;76.71
9676;BME280;4876;42.656;23.292;2023-08-06T06:42:29;93235.22;;;23.76;75.54
9676;BME280;4876;42.656;23.292;2023-08-06T06:44:57;93240.00;;;23.69;73.59
9676;BME280;4876;42.656;23.292;2023-08-06T06:47:23;93242.25;;;23.70;74.50
9676;BME280;4876;42.656;23.292;2023-08-06T06:49:50;93243.38;;;23.73;73.23
9676;BME280;4876;42.656;23.292;2023-08-06T06:52:17;93243.03;;;23.71;71.84
9676;BME280;4876;42.656;23.292;2023-08-06T06:54:44;93251.00;;;23.74;73.31
9676;BME280;4876;42.656;23.292;2023-08-06T06:57:11;93257.63;;;23.86;72.87
9676;BME280;4876;42.656;23.292;2023-08-06T06:59:37;93264.63;;;24.29;69.80
9676;BME280;4876;42.656;23.292;2023-08-06T07:02:06;93263.56;;;24.10;69.44
9676;BME280;4876;42.656;23.292;2023-08-06T07:04:33;93268.34;;;24.02;69.03
9676;BME280;4876;42.656;23.292;2023-08-06T07:07:00;93266.84;;;23.85;68.24
9676;BME280;4876;42.656;23.292;2023-08-06T07:09:27;93285.81;;;23.78;69.57
9676;BME280;4876;42.656;23.292;2023-08-06T07:11:54;93285.16;;;23.74;69.11
9676;BME280;4876;42.656;23.292;2023-08-06T07:14:20;93279.59;;;23.81;67.09
9676;BME280;4876;42.656;23.292;2023-08-06T07:16:47;93284.47;;;24.02;65.82
9676;BME280;4876;42.656;23.292;2023-08-06T07:19:15;93284.88;;;24.01;64.62
9676;BME280;4876;42.656;23.292;2023-08-06T07:21:42;93281.84;;;24.31;63.43
9676;BME280;4876;42.656;23.292;2023-08-06T07:24:09;93288.31;;;24.92;60.94
9676;BME280;4876;42.656;23.292;2023-08-06T07:26:37;93277.75;;;24.72;60.87
9676;BME280;4876;42.656;23.292;2023-08-06T07:29:03;93284.44;;;24.93;60.10
9676;BME280;4876;42.656;23.292;2023-08-06T07:31:30;93283.34;;;25.32;60.36
9676;BME280;4876;42.656;23.292;2023-08-06T07:33:57;93300.47;;;25.26;57.39
9676;BME280;4876;42.656;23.292;2023-08-06T07:36:25;93287.69;;;25.01;57.82
9676;BME280;4876;42.656;23.292;2023-08-06T07:38:52;93283.03;;;24.59;59.84
9676;BME280;4876;42.656;23.292;2023-08-06T07:41:21;93289.25;;;24.73;59.27
9676;BME280;4876;42.656;23.292;2023-08-06T07:43:48;93284.94;;;24.46;59.62
9676;BME280;4876;42.656;23.292;2023-08-06T07:46:15;93274.78;;;24.37;61.10
9676;BME280;4876;42.656;23.292;2023-08-06T07:48:41;93285.09;;;24.55;59.87
9676;BME280;4876;42.656;23.292;2023-08-06T07:51:08;93276.25;;;24.84;60.03
9676;BME280;4876;42.656;23.292;2023-08-06T07:53:37;93282.81;;;24.83;60.31
9676;BME280;4876;42.656;23.292;2023-08-06T07:56:04;93270.34;;;24.89;59.01
9676;BME280;4876;42.656;23.292;2023-08-06T07:58:30;93267.44;;;24.96;59.66
9676;BME280;4876;42.656;23.292;2023-08-06T08:00:57;93279.47;;;25.33;58.85
9676;BME280;4876;42.656;23.292;2023-08-06T08:03:24;93271.53;;;25.42;57.72
9676;BME280;4876;42.656;23.292;2023-08-06T08:05:54;93271.22;;;25.53;56.77
9676;BME280;4876;42.656;23.292;2023-08-06T08:08:22;93270.34;;;25.56;56.83
9676;BME280;4876;42.656;23.292;2023-08-06T08:10:50;93279.94;;;25.83;56.36
9676;BME280;4876;42.656;23.292;2023-08-06T08:13:17;93277.53;;;25.46;56.49
9676;BME280;4876;42.656;23.292;2023-08-06T08:15:44;93283.50;;;25.80;56.86
9676;BME280;4876;42.656;23.292;2023-08-06T08:18:11;93276.16;;;25.42;56.05
9676;BME280;4876;42.656;23.292;2023-08-06T08:20:38;93265.72;;;24.89;59.08
9676;BME280;4876;42.656;23.292;2023-08-06T08:23:04;93269.69;;;24.85;59.11
9676;BME280;4876;42.656;23.292;2023-08-06T08:25:31;93258.47;;;25.15;58.12
9676;BME280;4876;42.656;23.292;2023-08-06T08:28:00;93272.72;;;25.29;57.65
9676;BME280;4876;42.656;23.292;2023-08-06T08:30:27;93276.56;;;25.28;57.61
9676;BME280;4876;42.656;23.292;2023-08-06T08:32:54;93269.13;;;25.06;58.50
9676;BME280;4876;42.656;23.292;2023-08-06T08:35:21;93264.72;;;25.25;57.79
9676;BME280;4876;42.656;23.292;2023-08-06T08:37:47;93274.97;;;25.43;57.50
9676;BME280;4876;42.656;23.292;2023-08-06T08:40:15;93264.97;;;25.56;56.29
9676;BME280;4876;42.656;23.292;2023-08-06T08:42:42;93267.66;;;25.56;57.63
9676;BME280;4876;42.656;23.292;2023-08-06T08:45:12;93266.59;;;25.66;55.77
9676;BME280;4876;42.656;23.292;2023-08-06T08:47:40;93266.69;;;25.75;56.30
9676;BME280;4876;42.656;23.292;2023-08-06T08:50:08;93256.22;;;25.52;56.43
9676;BME280;4876;42.656;23.292;2023-08-06T08:52:35;93250.84;;;25.52;55.04
9676;BME280;4876;42.656;23.292;2023-08-06T08:55:03;93260.56;;;25.75;55.96
9676;BME280;4876;42.656;23.292;2023-08-06T08:57:30;93253.53;;;26.03;55.51
9676;BME280;4876;42.656;23.292;2023-08-06T08:59:57;93257.72;;;26.04;54.72
9676;BME280;4876;42.656;23.292;2023-08-06T09:02:28;93234.28;;;26.14;53.95
9676;BME280;4876;42.656;23.292;2023-08-06T09:04:57;93248.91;;;26.25;53.57
9676;BME280;4876;42.656;23.292;2023-08-06T09:07:27;93246.94;;;26.04;54.21
9676;BME280;4876;42.656;23.292;2023-08-06T09:09:54;93251.03;;;25.96;54.22
9676;BME280;4876;42.656;23.292;2023-08-06T09:12:22;93251.19;;;25.80;54.02
9676;BME280;4876;42.656;23.292;2023-08-06T09:14:49;93239.38;;;26.12;53.84
9676;BME280;4876;42.656;23.292;2023-08-06T09:17:16;93247.88;;;26.23;52.86
9676;BME280;4876;42.656;23.292;2023-08-06T09:19:46;93247.50;;;26.46;52.63
9676;BME280;4876;42.656;23.292;2023-08-06T09:22:15;93239.81;;;26.45;52.93
9676;BME280;4876;42.656;23.292;2023-08-06T09:24:43;93183.34;;;26.07;52.04
9676;BME280;4876;42.656;23.292;2023-08-06T09:27:13;93239.69;;;26.14;52.21
9676;BME280;4876;42.656;23.292;2023-08-06T09:29:41;93232.38;;;26.49;52.02
9676;BME280;4876;42.656;23.292;2023-08-06T09:32:08;93229.31;;;26.60;52.02
9676;BME280;4876;42.656;23.292;2023-08-06T09:34:35;93219.34;;;26.47;51.82
9676;BME280;4876;42.656;23.292;2023-08-06T09:37:08;93211.28;;;26.35;51.48
9676;BME280;4876;42.656;23.292;2023-08-06T09:39:35;93219.38;;;25.87;51.77
9676;BME280;4876;42.656;23.292;2023-08-06T09:42:03;93212.59;;;25.83;53.11
9676;BME280;4876;42.656;23.292;2023-08-06T09:44:31;93212.38;;;25.64;53.74
9676;BME280;4876;42.656;23.292;2023-08-06T09:46:59;93220.81;;;25.66;53.19
9676;BME280;4876;42.656;23.292;2023-08-06T09:49:27;93217.16;;;25.60;53.37
9676;BME280;4876;42.656;23.292;2023-08-06T09:51:55;93229.19;;;25.81;53.39
9676;BME280;4876;42.656;23.292;2023-08-06T09:54:25;93224.03;;;25.61;53.92
9676;BME280;4876;42.656;23.292;2023-08-06T09:56:52;93208.34;;;25.47;54.48
9676;BME280;4876;42.656;23.292;2023-08-06T09:59:19;93224.69;;;25.65;53.62
9676;BME280;4876;42.656;23.292;2023-08-06T10:01:46;93240.19;;;25.87;53.64
9676;BME280;4876;42.656;23.292;2023-08-06T10:04:15;93238.78;;;25.69;54.12
9676;BME280;4876;42.656;23.292;2023-08-06T10:06:46;93241.13;;;25.93;53.20
9676;BME280;4876;42.656;23.292;2023-08-06T10:09:13;93237.69;;;25.92;52.23
9676;BME280;4876;42.656;23.292;2023-08-06T10:11:42;93236.59;;;25.90;53.09
9676;BME280;4876;42.656;23.292;2023-08-06T10:14:18;93246.09;;;25.69;52.78
9676;BME280;4876;42.656;23.292;2023-08-06T10:16:47;93239.53;;;25.83;52.44
9676;BME280;4876;42.656;23.292;2023-08-06T10:19:15;93244.16;;;25.82;52.85
9676;BME280;4876;42.656;23.292;2023-08-06T10:22:08;93241.34;;;25.98;52.10
9676;BME280;4876;42.656;23.292;2023-08-06T10:24:46;93233.34;;;26.08;51.60
9676;BME280;4876;42.656;23.292;2023-08-06T10:27:19;93237.06;;;25.88;51.86
9676;BME280;4876;42.656;23.292;2023-08-06T10:29:46;93236.94;;;25.92;51.54
9676;BME280;4876;42.656;23.292;2023-08-06T10:32:13;93235.03;;;25.80;51.01
9676;BME280;4876;42.656;23.292;2023-08-06T10:34:53;93247.84;;;25.50;51.58
9676;BME280;4876;42.656;23.292;2023-08-06T10:37:21;93242.13;;;25.48;51.60
9676;BME280;4876;42.656;23.292;2023-08-06T10:39:49;93251.06;;;25.58;51.41
9676;BME280;4876;42.656;23.292;2023-08-06T10:42:22;93250.53;;;25.75;51.24
9676;BME280;4876;42.656;23.292;2023-08-06T10:45:11;93267.66;;;25.82;50.34
9676;BME280;4876;42.656;23.292;2023-08-06T10:47:38;93264.88;;;25.60;51.26
9676;BME280;4876;42.656;23.292;2023-08-06T10:50:06;93273.88;;;25.28;51.71
9676;BME280;4876;42.656;23.292;2023-08-06T10:52:33;93262.13;;;25.09;51.84
9676;BME280;4876;42.656;23.292;2023-08-06T10:55:00;93268.59;;;25.11;51.93
9676;BME280;4876;42.656;23.292;2023-08-06T10:57:28;93275.56;;;25.09;52.56
9676;BME280;4876;42.656;23.292;2023-08-06T10:59:55;93275.38;;;25.16;52.51
9676;BME280;4876;42.656;23.292;2023-08-06T11:02:22;93271.41;;;25.20;52.07
9676;BME280;4876;42.656;23.292;2023-08-06T11:04:49;93280.78;;;25.16;52.89
9676;BME280;4876;42.656;23.292;2023-08-06T11:07:16;93280.88;;;25.12;53.60
9676;BME280;4876;42.656;23.292;2023-08-06T11:09:43;93283.91;;;25.40;54.12
9676;BME280;4876;42.656;23.292;2023-08-06T11:12:10;93286.41;;;25.47;53.93
9676;BME280;4876;42.656;23.292;2023-08-06T11:14:38;93282.31;;;25.55;53.89
9676;BME280;4876;42.656;23.292;2023-08-06T11:17:05;93282.81;;;25.24;55.07
9676;BME280;4876;42.656;23.292;2023-08-06T11:19:32;93295.66;;;24.62;57.37
9676;BME280;4876;42.656;23.292;2023-08-06T11:22:00;93304.09;;;24.15;55.73
9676;BME280;4876;42.656;23.292;2023-08-06T11:24:27;93315.91;;;23.33;63.46
9676;BME280;4876;42.656;23.292;2023-08-06T11:26:54;93302.97;;;22.01;71.19
9676;BME280;4876;42.656;23.292;2023-08-06T11:29:21;93297.25;;;21.76;74.67
9676;BME280;4876;42.656;23.292;2023-08-06T11:31:49;93307.31;;;21.92;67.46
9676;BME280;4876;42.656;23.292;2023-08-06T11:34:16;93300.59;;;22.07;68.88
9676;BME280;4876;42.656;23.292;2023-08-06T11:36:43;93300.06;;;21.92;67.94
9676;BME280;4876;42.656;23.292;2023-08-06T11:39:10;93301.94;;;21.95;71.32
9676;BME280;4876;42.656;23.292;2023-08-06T11:41:38;93300.44;;;22.18;70.67
9676;BME280;4876;42.656;23.292;2023-08-06T11:44:05;93285.69;;;22.29;71.80
9676;BME280;4876;42.656;23.292;2023-08-06T11:46:51;93287.31;;;22.67;71.08
9676;BME280;4876;42.656;23.292;2023-08-06T11:49:18;93282.94;;;22.96;71.32
9676;BME280;4876;42.656;23.292;2023-08-06T11:51:47;93289.94;;;23.30;69.70
9676;BME280;4876;42.656;23.292;2023-08-06T11:54:14;93286.59;;;23.58;65.74
9676;BME280;4876;42.656;23.292;2023-08-06T11:56:41;93279.41;;;23.55;64.56
9676;BME280;4876;42.656;23.292;2023-08-06T11:59:08;93276.50;;;23.82;63.43
9676;BME280;4876;42.656;23.292;2023-08-06T12:01:35;93276.75;;;23.72;61.13
9676;BME280;4876;42.656;23.292;2023-08-06T12:04:06;93279.38;;;23.92;62.30
9676;BME280;4876;42.656;23.292;2023-08-06T12:06:41;93275.53;;;24.22;61.07
9676;BME280;4876;42.656;23.292;2023-08-06T12:09:08;93280.84;;;24.25;59.11
9676;BME280;4876;42.656;23.292;2023-08-06T12:11:37;93278.25;;;24.05;61.40
9676;BME280;4876;42.656;23.292;2023-08-06T12:14:04;93276.25;;;23.93;62.13
9676;BME280;4876;42.656;23.292;2023-08-06T12:16:30;93261.22;;;24.12;60.48
9676;BME280;4876;42.656;23.292;2023-08-06T12:18:57;93270.34;;;24.14;59.38
9676;BME280;4876;42.656;23.292;2023-08-06T12:21:25;93258.63;;;23.92;60.41
9676;BME280;4876;42.656;23.292;2023-08-06T12:23:52;93251.66;;;24.11;58.52
9676;BME280;4876;42.656;23.292;2023-08-06T12:26:19;93261.53;;;24.30;59.38
9676;BME280;4876;42.656;23.292;2023-08-06T12:28:46;93271.59;;;24.26;58.74
9676;BME280;4876;42.656;23.292;2023-08-06T12:31:14;93260.66;;;24.33;57.98
9676;BME280;4876;42.656;23.292;2023-08-06T12:33:41;93267.97;;;24.49;58.80
9676;BME280;4876;42.656;23.292;2023-08-06T12:36:08;93265.38;;;24.29;58.53
9676;BME280;4876;42.656;23.292;2023-08-06T12:38:36;93276.47;;;24.48;57.46
9676;BME280;4876;42.656;23.292;2023-08-06T12:41:03;93271.03;;;24.64;57.67
9676;BME280;4876;42.656;23.292;2023-08-06T12:43:30;93277.94;;;24.78;56.71
9676;BME280;4876;42.656;23.292;2023-08-06T12:45:56;93267.00;;;24.85;57.22
9676;BME280;4876;42.656;23.292;2023-08-06T12:48:23;93254.16;;;25.05;56.33
9676;BME280;4876;42.656;23.292;2023-08-06T12:50:50;93262.56;;;25.33;56.25
9676;BME280;4876;42.656;23.292;2023-08-06T12:53:17;93263.03;;;25.44;56.14
9676;BME280;4876;42.656;23.292;2023-08-06T12:55:47;93260.31;;;25.44;54.47
9676;BME280;4876;42.656;23.292;2023-08-06T12:58:14;93256.34;;;25.61;54.94
9676;BME280;4876;42.656;23.292;2023-08-06T13:00:41;93263.78;;;25.83;54.20
9676;BME280;4876;42.656;23.292;2023-08-06T13:03:08;93253.75;;;25.83;54.32
9676;BME280;4876;42.656;23.292;2023-08-06T13:05:35;93250.41;;;25.92;53.12
9676;BME280;4876;42.656;23.292;2023-08-06T13:08:02;93258.06;;;25.93;52.67
9676;BME280;4876;42.656;23.292;2023-08-06T13:10:30;93255.13;;;26.00;52.71